Joyce Maxine — WDC9281 — position and weather

sailwx.info

Track history (hours):
 
Tides and Currents Weather Stations Pressure Air Temp Water Temp Dewpoint Dewpoint Depression Visibility Wind Speed Wind Dir Waves Ship Positions

Joyce Maxine

Owner: LeBeouf Bros. Towing, L.L.C., Houma, LA. More information available from US FCC via Universal Licensing System and Coast Guard Vessel Documentation Center.

Last reported at 2017-Oct-03 19:48 UTC. Time now 2017-Nov-24 03:27 UTC.
Position N 29°33' W 090°28'.
Warning: this ship's position is 51 days out of date.

Length 22 m; draft 3 m.

Type: Towing. MMSI: 367100060.

Date/timePositionNaut miles runAvg speedWind from/ knotsBaromVisibWave heightAir tempDewpointWater temp
2017-Oct-03 19:48N 29°33' W 090°28'1 5.0
2017-Oct-03 19:30N 29°34' W 090°30'3 5.0
2017-Oct-03 19:00N 29°34' W 090°32'3 4.9
2017-Oct-03 18:28N 29°35' W 090°35'0 0.0
2017-Oct-03 18:00N 29°35' W 090°35'0 0.6
2017-Oct-03 17:30N 29°35' W 090°36'2 3.9
2017-Oct-03 17:00N 29°35' W 090°38'3 5.1
2017-Oct-03 16:30N 29°36' W 090°40'2 3.8
2017-Oct-03 16:00N 29°36' W 090°43'2 4.4
2017-Oct-03 15:30N 29°34' W 090°43'2 4.2
2017-Oct-03 15:01N 29°33' W 090°45'6 4.9
2017-Oct-03 13:46N 29°32' W 090°52'2 5.7
2017-Oct-03 13:27N 29°33' W 090°54'4 5.3
2017-Oct-03 12:41N 29°35' W 090°58'56 4.6
2017-Oct-03 00:32N 29°50' W 091°60'0 4.5
2017-Oct-03 00:30N 29°50' W 091°60'3 5.5
2017-Oct-03 00:00N 29°49' W 092°03'3 6.1
2017-Oct-02 23:30N 29°48' W 092°06'3 6.1
2017-Oct-02 23:00N 29°47' W 092°09'3 5.1
2017-Oct-02 22:30N 29°47' W 092°12'0 0.9
2017-Oct-02 22:00N 29°47' W 092°13'1 1.6
2017-Oct-02 21:30N 29°48' W 092°14'1 1.7
2017-Oct-02 21:00N 29°48' W 092°15'3 5.3
2017-Oct-02 20:30N 29°49' W 092°17'2 4.1
2017-Oct-02 20:00N 29°50' W 092°19'40 4.1
2017-Oct-02 10:19N 29°56' W 093°05'2 5.0
2017-Oct-02 10:00N 29°56' W 093°06'3 5.1
2017-Oct-02 09:30N 29°56' W 093°09'2 4.9
2017-Oct-02 09:00N 29°58' W 093°11'2 5.0
2017-Oct-02 08:30N 29°60' W 093°13'2 4.7
2017-Oct-02 08:00N 30°02' W 093°15'2 4.8
2017-Oct-02 07:30N 30°04' W 093°16'2 4.7
2017-Oct-02 07:00N 30°06' W 093°18'1 1.9
2017-Oct-02 06:31N 30°06' W 093°19'0 0.0
2017-Oct-02 06:00N 30°06' W 093°19'0 0.3
2017-Oct-02 05:30N 30°06' W 093°19'2 3.9
2017-Oct-02 05:00N 30°05' W 093°17'2 4.2
2017-Oct-02 04:30N 30°03' W 093°16'2 3.9
2017-Oct-02 04:01N 30°02' W 093°14'2 4.4
2017-Oct-02 03:30N 29°60' W 093°13'3 5.1
2017-Oct-02 03:01N 29°58' W 093°11'44 4.1
2017-Oct-01 16:17N 29°51' W 092°21'2 5.5
2017-Oct-01 16:00N 29°50' W 092°19'3 5.1
2017-Oct-01 15:30N 29°49' W 092°17'3 5.6
2017-Oct-01 15:01N 29°48' W 092°14'2 4.1
2017-Oct-01 14:31N 29°47' W 092°12'2 3.1
2017-Oct-01 14:00N 29°47' W 092°10'3 5.2
2017-Oct-01 13:30N 29°47' W 092°07'3 5.2
2017-Oct-01 13:00N 29°48' W 092°05'3 5.1
2017-Oct-01 12:28N 29°49' W 092°02'83 1.9
2017-Sep-29 16:30N 29°33' W 090°28'3 6.8
2017-Sep-29 16:00N 29°34' W 090°32'3 6.5
2017-Sep-29 15:30N 29°34' W 090°36'0 0.2
2017-Sep-29 15:00N 29°34' W 090°36'0 0.0
2017-Sep-29 14:30N 29°34' W 090°36'0 0.0
2017-Sep-29 14:00N 29°34' W 090°36'0 0.0
2017-Sep-29 13:30N 29°34' W 090°36'0 0.0
2017-Sep-29 13:00N 29°34' W 090°36'0 0.0
2017-Sep-29 12:30N 29°34' W 090°36'0 0.0
2017-Sep-29 12:00N 29°34' W 090°36'0 0.0
2017-Sep-29 11:30N 29°34' W 090°36'0 0.0
2017-Sep-29 11:00N 29°34' W 090°36'0 0.0
2017-Sep-29 10:30N 29°34' W 090°36'0 0.0
2017-Sep-29 10:00N 29°34' W 090°36'0 0.0
2017-Sep-29 09:30N 29°34' W 090°36'0 0.0
2017-Sep-29 09:00N 29°34' W 090°36'0 0.0
2017-Sep-29 08:30N 29°34' W 090°36'0 0.0
2017-Sep-29 08:00N 29°34' W 090°36'0 0.0
2017-Sep-29 07:30N 29°34' W 090°36'0 0.0
2017-Sep-29 07:00N 29°34' W 090°36'0 0.0
2017-Sep-29 06:30N 29°34' W 090°36'0 0.0
2017-Sep-29 06:00N 29°34' W 090°36'0 0.0
2017-Sep-29 05:30N 29°34' W 090°36'0 0.0
2017-Sep-29 05:00N 29°34' W 090°36'0 0.0
2017-Sep-29 04:30N 29°34' W 090°36'0 0.0
2017-Sep-29 04:00N 29°34' W 090°36'0 0.0
2017-Sep-29 03:30N 29°34' W 090°36'0 0.0
2017-Sep-29 03:00N 29°34' W 090°36'0 0.0
2017-Sep-29 02:30N 29°34' W 090°36'0 0.0
2017-Sep-29 02:00N 29°34' W 090°36'0 0.0
2017-Sep-29 01:30N 29°34' W 090°36'0 0.0
2017-Sep-29 01:00N 29°34' W 090°36'0 0.0
2017-Sep-29 00:30N 29°34' W 090°36'0 0.0
2017-Sep-29 00:00N 29°34' W 090°36'0 0.0
2017-Sep-28 23:30N 29°34' W 090°36'0 0.0
2017-Sep-28 23:00N 29°34' W 090°36'0 0.0
2017-Sep-28 22:30N 29°34' W 090°36'1 1.5
2017-Sep-28 22:00N 29°35' W 090°36'0 0.0
2017-Sep-28 21:30N 29°35' W 090°36'0 0.0
2017-Sep-28 21:00N 29°35' W 090°36'0 0.0
2017-Sep-28 20:30N 29°35' W 090°36'0 0.0
2017-Sep-28 20:00N 29°35' W 090°36'0 0.0
2017-Sep-28 19:30N 29°35' W 090°36'0 0.0
2017-Sep-28 19:00N 29°35' W 090°36'0 0.0
2017-Sep-28 18:30N 29°35' W 090°36'0 0.0
2017-Sep-28 18:00N 29°35' W 090°36'0 0.0
2017-Sep-28 17:30N 29°35' W 090°36'0 0.4
2017-Sep-28 17:00N 29°35' W 090°36'3 5.0
2017-Sep-28 16:30N 29°34' W 090°33'8 0.5
2017-Sep-28 00:12N 29°33' W 090°24'1 4.1
2017-Sep-27 23:58N 29°33' W 090°25'0 0.9
2017-Sep-27 23:31N 29°33' W 090°25'0 0.0
2017-Sep-27 23:00N 29°33' W 090°25'2 3.3
2017-Sep-27 22:22N 29°33' W 090°28'2 7.1
2017-Sep-27 22:01N 29°34' W 090°30'4 7.1
2017-Sep-27 21:31N 29°34' W 090°34'1 2.0
2017-Sep-27 21:01N 29°35' W 090°35'1 1.1
2017-Sep-27 20:30N 29°35' W 090°36'1 1.4
2017-Sep-27 20:01N 29°34' W 090°36'0 0.0
2017-Sep-27 19:31N 29°34' W 090°36'0 0.0
2017-Sep-27 19:01N 29°34' W 090°36'0 0.0
2017-Sep-27 18:25N 29°34' W 090°36'0 0.0
2017-Sep-27 18:01N 29°34' W 090°36'0 0.0
2017-Sep-27 17:31N 29°34' W 090°36'0 0.0
2017-Sep-27 17:01N 29°34' W 090°36'0 0.0
2017-Sep-27 16:31N 29°34' W 090°36'0 0.0
2017-Sep-27 16:00N 29°34' W 090°36'0 0.0
2017-Sep-27 15:31N 29°34' W 090°36'0 0.0
2017-Sep-27 15:00N 29°34' W 090°36'0 0.0
2017-Sep-27 14:31N 29°34' W 090°36'0 0.0
2017-Sep-27 14:01N 29°34' W 090°36'0 0.0
2017-Sep-27 13:30N 29°34' W 090°36'0 0.0
2017-Sep-27 13:00N 29°34' W 090°36'0 0.0
2017-Sep-27 12:31N 29°34' W 090°36'0 0.0
2017-Sep-27 12:00N 29°34' W 090°36'0 0.0
2017-Sep-27 11:31N 29°34' W 090°36'0 0.0
2017-Sep-27 11:01N 29°34' W 090°36'0 0.0
2017-Sep-27 10:31N 29°34' W 090°36'0 0.0
2017-Sep-27 10:00N 29°34' W 090°36'0 0.0
2017-Sep-27 09:31N 29°34' W 090°36'1 1.2
2017-Sep-27 08:58N 29°34' W 090°35'0 0.2
2017-Sep-27 08:30N 29°35' W 090°35'0 0.2
2017-Sep-27 08:00N 29°35' W 090°35'1 1.6
2017-Sep-27 07:31N 29°35' W 090°36'2 4.4
2017-Sep-27 07:01N 29°35' W 090°38'2 5.0
2017-Sep-27 06:31N 29°36' W 090°41'1 2.8
2017-Sep-27 06:00N 29°36' W 090°43'2 3.8
2017-Sep-27 05:31N 29°34' W 090°43'2 4.0
2017-Sep-27 05:01N 29°33' W 090°45'1 1.3
2017-Sep-27 04:31N 29°33' W 090°45'0 0.2
2017-Sep-27 04:00N 29°33' W 090°46'1 2.5
2017-Sep-27 03:30N 29°32' W 090°47'3 5.6
2017-Sep-27 03:00N 29°32' W 090°50'3 5.4
2017-Sep-27 02:27N 29°33' W 090°53'2 5.5
2017-Sep-27 02:01N 29°34' W 090°56'3 5.0
2017-Sep-27 01:31N 29°35' W 090°58'55 3.6
2017-Sep-26 10:15N 29°50' W 091°60'2 5.7
2017-Sep-26 09:57N 29°49' W 092°01'2 5.6
2017-Sep-26 09:30N 29°48' W 092°04'3 5.7
2017-Sep-26 09:01N 29°47' W 092°07'3 5.6
2017-Sep-26 08:31N 29°47' W 092°10'2 4.1
2017-Sep-26 08:00N 29°47' W 092°12'1 2.6
2017-Sep-26 07:30N 29°48' W 092°14'0 0.5
2017-Sep-26 07:00N 29°48' W 092°14'2 4.5
2017-Sep-26 06:30N 29°49' W 092°16'3 4.8
2017-Sep-26 05:58N 29°50' W 092°19'40 4.9
2017-Sep-25 21:51N 29°56' W 093°04'2 4.9
2017-Sep-25 21:29N 29°56' W 093°06'2 4.9
2017-Sep-25 21:00N 29°56' W 093°09'2 4.5
2017-Sep-25 20:30N 29°58' W 093°11'2 4.9
2017-Sep-25 20:01N 29°59' W 093°13'2 4.3
2017-Sep-25 19:31N 30°01' W 093°14'2 4.4
2017-Sep-25 19:00N 30°03' W 093°16'2 3.9
2017-Sep-25 18:30N 30°05' W 093°17'1 2.7
2017-Sep-25 18:00N 30°05' W 093°18'1 1.3
2017-Sep-25 17:30N 30°06' W 093°18'0 0.0
2017-Sep-25 17:00N 30°06' W 093°18'0 0.0
2017-Sep-25 16:30N 30°06' W 093°18'0 0.1
2017-Sep-25 16:00N 30°06' W 093°18'2 4.2
2017-Sep-25 15:30N 30°05' W 093°20'1 2.8
2017-Sep-25 15:00N 30°04' W 093°21'2 3.2
2017-Sep-25 14:30N 30°04' W 093°23'1 1.6
2017-Sep-25 14:00N 30°04' W 093°24'1 1.8
2017-Sep-25 13:30N 30°04' W 093°25'3 5.0
2017-Sep-25 13:00N 30°04' W 093°28'3 5.4
2017-Sep-25 12:30N 30°04' W 093°31'5 5.4
2017-Sep-25 11:32N 30°03' W 093°37'0 5.9
2017-Sep-25 11:30N 30°04' W 093°37'3 6.1
2017-Sep-25 10:58N 30°04' W 093°41'70 4.5
2017-Sep-24 19:13N 29°31' W 094°53'2 7.8
2017-Sep-24 19:00N 29°32' W 094°54'4 7.4
2017-Sep-24 18:30N 29°35' W 094°56'4 7.7
2017-Sep-24 18:00N 29°39' W 094°58'4 7.5
2017-Sep-24 17:28N 29°42' W 095°01'3 6.1
2017-Sep-24 17:00N 29°44' W 095°03'1 1.9
2017-Sep-24 16:27N 29°45' W 095°04'2 3.4
2017-Sep-24 15:53N 29°45' W 095°06'0 0.0
2017-Sep-23 22:59N 29°45' W 095°06'2 4.4
2017-Sep-23 22:30N 29°45' W 095°04'3 6.0
2017-Sep-23 22:00N 29°43' W 095°01'1 2.5
2017-Sep-23 21:26N 29°42' W 095°03'  
Track history (hours):
 
Tides and Currents Weather Stations Pressure Air Temp Water Temp Dewpoint Dewpoint Depression Visibility Wind Speed Wind Dir Waves Ship Positions

Joyce Maxine

Owner: LeBeouf Bros. Towing, L.L.C., Houma, LA. More information available from US FCC via Universal Licensing System and Coast Guard Vessel Documentation Center.

Last reported at 2017-Oct-03 19:48 UTC. Time now 2017-Nov-24 03:27 UTC.
Position N 29°33' W 090°28'.
Warning: this ship's position is 51 days out of date.

Length 22 m; draft 3 m.

Type: Towing. MMSI: 367100060.

Date/timePositionNaut miles runAvg speedWind from/ knotsBaromVisibWave heightAir tempDewpointWater temp
2017-Oct-03 19:48N 29°33' W 090°28'1 5.0
2017-Oct-03 19:30N 29°34' W 090°30'3 5.0
2017-Oct-03 19:00N 29°34' W 090°32'3 4.9
2017-Oct-03 18:28N 29°35' W 090°35'0 0.0
2017-Oct-03 18:00N 29°35' W 090°35'0 0.6
2017-Oct-03 17:30N 29°35' W 090°36'2 3.9
2017-Oct-03 17:00N 29°35' W 090°38'3 5.1
2017-Oct-03 16:30N 29°36' W 090°40'2 3.8
2017-Oct-03 16:00N 29°36' W 090°43'2 4.4
2017-Oct-03 15:30N 29°34' W 090°43'2 4.2
2017-Oct-03 15:01N 29°33' W 090°45'6 4.9
2017-Oct-03 13:46N 29°32' W 090°52'2 5.7
2017-Oct-03 13:27N 29°33' W 090°54'4 5.3
2017-Oct-03 12:41N 29°35' W 090°58'56 4.6
2017-Oct-03 00:32N 29°50' W 091°60'0 4.5
2017-Oct-03 00:30N 29°50' W 091°60'3 5.5
2017-Oct-03 00:00N 29°49' W 092°03'3 6.1
2017-Oct-02 23:30N 29°48' W 092°06'3 6.1
2017-Oct-02 23:00N 29°47' W 092°09'3 5.1
2017-Oct-02 22:30N 29°47' W 092°12'0 0.9
2017-Oct-02 22:00N 29°47' W 092°13'1 1.6
2017-Oct-02 21:30N 29°48' W 092°14'1 1.7
2017-Oct-02 21:00N 29°48' W 092°15'3 5.3
2017-Oct-02 20:30N 29°49' W 092°17'2 4.1
2017-Oct-02 20:00N 29°50' W 092°19'40 4.1
2017-Oct-02 10:19N 29°56' W 093°05'2 5.0
2017-Oct-02 10:00N 29°56' W 093°06'3 5.1
2017-Oct-02 09:30N 29°56' W 093°09'2 4.9
2017-Oct-02 09:00N 29°58' W 093°11'2 5.0
2017-Oct-02 08:30N 29°60' W 093°13'2 4.7
2017-Oct-02 08:00N 30°02' W 093°15'2 4.8
2017-Oct-02 07:30N 30°04' W 093°16'2 4.7
2017-Oct-02 07:00N 30°06' W 093°18'1 1.9
2017-Oct-02 06:31N 30°06' W 093°19'0 0.0
2017-Oct-02 06:00N 30°06' W 093°19'0 0.3
2017-Oct-02 05:30N 30°06' W 093°19'2 3.9
2017-Oct-02 05:00N 30°05' W 093°17'2 4.2
2017-Oct-02 04:30N 30°03' W 093°16'2 3.9
2017-Oct-02 04:01N 30°02' W 093°14'2 4.4
2017-Oct-02 03:30N 29°60' W 093°13'3 5.1
2017-Oct-02 03:01N 29°58' W 093°11'44 4.1
2017-Oct-01 16:17N 29°51' W 092°21'2 5.5
2017-Oct-01 16:00N 29°50' W 092°19'3 5.1
2017-Oct-01 15:30N 29°49' W 092°17'3 5.6
2017-Oct-01 15:01N 29°48' W 092°14'2 4.1
2017-Oct-01 14:31N 29°47' W 092°12'2 3.1
2017-Oct-01 14:00N 29°47' W 092°10'3 5.2
2017-Oct-01 13:30N 29°47' W 092°07'3 5.2
2017-Oct-01 13:00N 29°48' W 092°05'3 5.1
2017-Oct-01 12:28N 29°49' W 092°02'83 1.9
2017-Sep-29 16:30N 29°33' W 090°28'3 6.8
2017-Sep-29 16:00N 29°34' W 090°32'3 6.5
2017-Sep-29 15:30N 29°34' W 090°36'0 0.2
2017-Sep-29 15:00N 29°34' W 090°36'0 0.0
2017-Sep-29 14:30N 29°34' W 090°36'0 0.0
2017-Sep-29 14:00N 29°34' W 090°36'0 0.0
2017-Sep-29 13:30N 29°34' W 090°36'0 0.0
2017-Sep-29 13:00N 29°34' W 090°36'0 0.0
2017-Sep-29 12:30N 29°34' W 090°36'0 0.0
2017-Sep-29 12:00N 29°34' W 090°36'0 0.0
2017-Sep-29 11:30N 29°34' W 090°36'0 0.0
2017-Sep-29 11:00N 29°34' W 090°36'0 0.0
2017-Sep-29 10:30N 29°34' W 090°36'0 0.0
2017-Sep-29 10:00N 29°34' W 090°36'0 0.0
2017-Sep-29 09:30N 29°34' W 090°36'0 0.0
2017-Sep-29 09:00N 29°34' W 090°36'0 0.0
2017-Sep-29 08:30N 29°34' W 090°36'0 0.0
2017-Sep-29 08:00N 29°34' W 090°36'0 0.0
2017-Sep-29 07:30N 29°34' W 090°36'0 0.0
2017-Sep-29 07:00N 29°34' W 090°36'0 0.0
2017-Sep-29 06:30N 29°34' W 090°36'0 0.0
2017-Sep-29 06:00N 29°34' W 090°36'0 0.0
2017-Sep-29 05:30N 29°34' W 090°36'0 0.0
2017-Sep-29 05:00N 29°34' W 090°36'0 0.0
2017-Sep-29 04:30N 29°34' W 090°36'0 0.0
2017-Sep-29 04:00N 29°34' W 090°36'0 0.0
2017-Sep-29 03:30N 29°34' W 090°36'0 0.0
2017-Sep-29 03:00N 29°34' W 090°36'0 0.0
2017-Sep-29 02:30N 29°34' W 090°36'0 0.0
2017-Sep-29 02:00N 29°34' W 090°36'0 0.0
2017-Sep-29 01:30N 29°34' W 090°36'0 0.0
2017-Sep-29 01:00N 29°34' W 090°36'0 0.0
2017-Sep-29 00:30N 29°34' W 090°36'0 0.0
2017-Sep-29 00:00N 29°34' W 090°36'0 0.0
2017-Sep-28 23:30N 29°34' W 090°36'0 0.0
2017-Sep-28 23:00N 29°34' W 090°36'0 0.0
2017-Sep-28 22:30N 29°34' W 090°36'1 1.5
2017-Sep-28 22:00N 29°35' W 090°36'0 0.0
2017-Sep-28 21:30N 29°35' W 090°36'0 0.0
2017-Sep-28 21:00N 29°35' W 090°36'0 0.0
2017-Sep-28 20:30N 29°35' W 090°36'0 0.0
2017-Sep-28 20:00N 29°35' W 090°36'0 0.0
2017-Sep-28 19:30N 29°35' W 090°36'0 0.0
2017-Sep-28 19:00N 29°35' W 090°36'0 0.0
2017-Sep-28 18:30N 29°35' W 090°36'0 0.0
2017-Sep-28 18:00N 29°35' W 090°36'0 0.0
2017-Sep-28 17:30N 29°35' W 090°36'0 0.4
2017-Sep-28 17:00N 29°35' W 090°36'3 5.0
2017-Sep-28 16:30N 29°34' W 090°33'8 0.5
2017-Sep-28 00:12N 29°33' W 090°24'1 4.1
2017-Sep-27 23:58N 29°33' W 090°25'0 0.9
2017-Sep-27 23:31N 29°33' W 090°25'0 0.0
2017-Sep-27 23:00N 29°33' W 090°25'2 3.3
2017-Sep-27 22:22N 29°33' W 090°28'2 7.1
2017-Sep-27 22:01N 29°34' W 090°30'4 7.1
2017-Sep-27 21:31N 29°34' W 090°34'1 2.0
2017-Sep-27 21:01N 29°35' W 090°35'1 1.1
2017-Sep-27 20:30N 29°35' W 090°36'1 1.4
2017-Sep-27 20:01N 29°34' W 090°36'0 0.0
2017-Sep-27 19:31N 29°34' W 090°36'0 0.0
2017-Sep-27 19:01N 29°34' W 090°36'0 0.0
2017-Sep-27 18:25N 29°34' W 090°36'0 0.0
2017-Sep-27 18:01N 29°34' W 090°36'0 0.0
2017-Sep-27 17:31N 29°34' W 090°36'0 0.0
2017-Sep-27 17:01N 29°34' W 090°36'0 0.0
2017-Sep-27 16:31N 29°34' W 090°36'0 0.0
2017-Sep-27 16:00N 29°34' W 090°36'0 0.0
2017-Sep-27 15:31N 29°34' W 090°36'0 0.0
2017-Sep-27 15:00N 29°34' W 090°36'0 0.0
2017-Sep-27 14:31N 29°34' W 090°36'0 0.0
2017-Sep-27 14:01N 29°34' W 090°36'0 0.0
2017-Sep-27 13:30N 29°34' W 090°36'0 0.0
2017-Sep-27 13:00N 29°34' W 090°36'0 0.0
2017-Sep-27 12:31N 29°34' W 090°36'0 0.0
2017-Sep-27 12:00N 29°34' W 090°36'0 0.0
2017-Sep-27 11:31N 29°34' W 090°36'0 0.0
2017-Sep-27 11:01N 29°34' W 090°36'0 0.0
2017-Sep-27 10:31N 29°34' W 090°36'0 0.0
2017-Sep-27 10:00N 29°34' W 090°36'0 0.0
2017-Sep-27 09:31N 29°34' W 090°36'1 1.2
2017-Sep-27 08:58N 29°34' W 090°35'0 0.2
2017-Sep-27 08:30N 29°35' W 090°35'0 0.2
2017-Sep-27 08:00N 29°35' W 090°35'1 1.6
2017-Sep-27 07:31N 29°35' W 090°36'2 4.4
2017-Sep-27 07:01N 29°35' W 090°38'2 5.0
2017-Sep-27 06:31N 29°36' W 090°41'1 2.8
2017-Sep-27 06:00N 29°36' W 090°43'2 3.8
2017-Sep-27 05:31N 29°34' W 090°43'2 4.0
2017-Sep-27 05:01N 29°33' W 090°45'1 1.3
2017-Sep-27 04:31N 29°33' W 090°45'0 0.2
2017-Sep-27 04:00N 29°33' W 090°46'1 2.5
2017-Sep-27 03:30N 29°32' W 090°47'3 5.6
2017-Sep-27 03:00N 29°32' W 090°50'3 5.4
2017-Sep-27 02:27N 29°33' W 090°53'2 5.5
2017-Sep-27 02:01N 29°34' W 090°56'3 5.0
2017-Sep-27 01:31N 29°35' W 090°58'55 3.6
2017-Sep-26 10:15N 29°50' W 091°60'2 5.7
2017-Sep-26 09:57N 29°49' W 092°01'2 5.6
2017-Sep-26 09:30N 29°48' W 092°04'3 5.7
2017-Sep-26 09:01N 29°47' W 092°07'3 5.6
2017-Sep-26 08:31N 29°47' W 092°10'2 4.1
2017-Sep-26 08:00N 29°47' W 092°12'1 2.6
2017-Sep-26 07:30N 29°48' W 092°14'0 0.5
2017-Sep-26 07:00N 29°48' W 092°14'2 4.5
2017-Sep-26 06:30N 29°49' W 092°16'3 4.8
2017-Sep-26 05:58N 29°50' W 092°19'40 4.9
2017-Sep-25 21:51N 29°56' W 093°04'2 4.9
2017-Sep-25 21:29N 29°56' W 093°06'2 4.9
2017-Sep-25 21:00N 29°56' W 093°09'2 4.5
2017-Sep-25 20:30N 29°58' W 093°11'2 4.9
2017-Sep-25 20:01N 29°59' W 093°13'2 4.3
2017-Sep-25 19:31N 30°01' W 093°14'2 4.4
2017-Sep-25 19:00N 30°03' W 093°16'2 3.9
2017-Sep-25 18:30N 30°05' W 093°17'1 2.7
2017-Sep-25 18:00N 30°05' W 093°18'1 1.3
2017-Sep-25 17:30N 30°06' W 093°18'0 0.0
2017-Sep-25 17:00N 30°06' W 093°18'0 0.0
2017-Sep-25 16:30N 30°06' W 093°18'0 0.1
2017-Sep-25 16:00N 30°06' W 093°18'2 4.2
2017-Sep-25 15:30N 30°05' W 093°20'1 2.8
2017-Sep-25 15:00N 30°04' W 093°21'2 3.2
2017-Sep-25 14:30N 30°04' W 093°23'1 1.6
2017-Sep-25 14:00N 30°04' W 093°24'1 1.8
2017-Sep-25 13:30N 30°04' W 093°25'3 5.0
2017-Sep-25 13:00N 30°04' W 093°28'3 5.4
2017-Sep-25 12:30N 30°04' W 093°31'5 5.4
2017-Sep-25 11:32N 30°03' W 093°37'0 5.9
2017-Sep-25 11:30N 30°04' W 093°37'3 6.1
2017-Sep-25 10:58N 30°04' W 093°41'70 4.5
2017-Sep-24 19:13N 29°31' W 094°53'2 7.8
2017-Sep-24 19:00N 29°32' W 094°54'4 7.4
2017-Sep-24 18:30N 29°35' W 094°56'4 7.7
2017-Sep-24 18:00N 29°39' W 094°58'4 7.5
2017-Sep-24 17:28N 29°42' W 095°01'3 6.1
2017-Sep-24 17:00N 29°44' W 095°03'1 1.9
2017-Sep-24 16:27N 29°45' W 095°04'2 3.4
2017-Sep-24 15:53N 29°45' W 095°06'0 0.0
2017-Sep-23 22:59N 29°45' W 095°06'2 4.4
2017-Sep-23 22:30N 29°45' W 095°04'3 6.0
2017-Sep-23 22:00N 29°43' W 095°01'1 2.5
2017-Sep-23 21:26N 29°42' W 095°03'  

Dump ship's entire track history